Old Perlican, Canada
Current Conditions -  °F | °C
As of 9:00 AM on Sunday 23 Nov 2014 (Local Time) from CYYT Reporting Station
Snow Showers Snow Showers  
Wind Chill: 24°   Ceiling: 2400
Heat Index: 34°   Visibility: 15mi
Dew Point: 30°   Wind: 16mph
Humidity: 87%   Direction: 260°W
Pressure: 29.7"   Gusts: 23mph
Location:  48.08°N, 53.02°W
Report Text: CYYT 231200Z 26014G20KT 15SM -SHSN OVC024 01/M01 A2970 RMK SC8 SLP065
Loading
Personal Weather Stations






























Interactive Weather Map New forecast layout! Learn more

10-Day Weather Forecast

Advertisements
Track Severe Weather on mobile